sensor_id;sensor_type;location;lat;lon;timestamp;P1;durP1;ratioP1;P2;durP2;ratioP2
31990;SDS011;18508;49.386;8.370;2022-10-03T00:03:06;12.13;;;6.50;;
31990;SDS011;18508;49.386;8.370;2022-10-03T00:05:52;10.18;;;5.80;;
31990;SDS011;18508;49.386;8.370;2022-10-03T00:08:43;11.85;;;6.10;;
31990;SDS011;18508;49.386;8.370;2022-10-03T00:11:28;11.88;;;6.25;;
31990;SDS011;18508;49.386;8.370;2022-10-03T00:14:12;8.60;;;5.78;;
31990;SDS011;18508;49.386;8.370;2022-10-03T00:16:47;9.55;;;6.25;;
31990;SDS011;18508;49.386;8.370;2022-10-03T00:19:25;9.63;;;5.88;;
31990;SDS011;18508;49.386;8.370;2022-10-03T00:22:04;11.85;;;5.53;;
31990;SDS011;18508;49.386;8.370;2022-10-03T00:24:43;9.98;;;5.65;;
31990;SDS011;18508;49.386;8.370;2022-10-03T00:27:25;9.48;;;5.47;;
31990;SDS011;18508;49.386;8.370;2022-10-03T00:30:14;11.63;;;6.35;;
31990;SDS011;18508;49.386;8.370;2022-10-03T00:32:46;12.10;;;5.55;;
31990;SDS011;18508;49.386;8.370;2022-10-03T00:35:27;10.38;;;5.55;;
31990;SDS011;18508;49.386;8.370;2022-10-03T00:38:06;7.95;;;4.72;;
31990;SDS011;18508;49.386;8.370;2022-10-03T00:47:11;9.82;;;5.40;;
31990;SDS011;18508;49.386;8.370;2022-10-03T00:56:25;7.53;;;4.85;;
31990;SDS011;18508;49.386;8.370;2022-10-03T00:59:23;9.07;;;4.53;;
31990;SDS011;18508;49.386;8.370;2022-10-03T01:02:13;9.87;;;5.23;;
31990;SDS011;18508;49.386;8.370;2022-10-03T01:04:53;10.07;;;5.70;;
31990;SDS011;18508;49.386;8.370;2022-10-03T01:07:35;14.48;;;7.78;;
31990;SDS011;18508;49.386;8.370;2022-10-03T01:10:34;17.27;;;8.30;;
31990;SDS011;18508;49.386;8.370;2022-10-03T01:13:16;19.48;;;9.25;;
31990;SDS011;18508;49.386;8.370;2022-10-03T01:15:57;22.75;;;10.70;;
31990;SDS011;18508;49.386;8.370;2022-10-03T01:18:40;23.35;;;11.13;;
31990;SDS011;18508;49.386;8.370;2022-10-03T01:21:21;22.08;;;10.85;;
31990;SDS011;18508;49.386;8.370;2022-10-03T01:24:07;22.13;;;10.68;;
31990;SDS011;18508;49.386;8.370;2022-10-03T01:26:59;18.67;;;8.98;;
31990;SDS011;18508;49.386;8.370;2022-10-03T01:32:39;11.65;;;6.75;;
31990;SDS011;18508;49.386;8.370;2022-10-03T01:38:13;11.32;;;5.70;;
31990;SDS011;18508;49.386;8.370;2022-10-03T01:40:49;9.70;;;5.10;;
31990;SDS011;18508;49.386;8.370;2022-10-03T01:43:29;10.15;;;5.20;;
31990;SDS011;18508;49.386;8.370;2022-10-03T01:46:09;6.93;;;4.30;;
31990;SDS011;18508;49.386;8.370;2022-10-03T01:48:45;8.13;;;4.63;;
31990;SDS011;18508;49.386;8.370;2022-10-03T01:51:23;7.28;;;4.60;;
31990;SDS011;18508;49.386;8.370;2022-10-03T01:54:01;8.68;;;4.88;;
31990;SDS011;18508;49.386;8.370;2022-10-03T01:56:44;10.45;;;5.28;;
31990;SDS011;18508;49.386;8.370;2022-10-03T01:59:21;11.48;;;4.93;;
31990;SDS011;18508;49.386;8.370;2022-10-03T02:02:00;10.43;;;5.28;;
31990;SDS011;18508;49.386;8.370;2022-10-03T02:04:39;13.00;;;5.40;;
31990;SDS011;18508;49.386;8.370;2022-10-03T02:07:14;9.75;;;5.18;;
31990;SDS011;18508;49.386;8.370;2022-10-03T02:09:53;8.45;;;4.70;;
31990;SDS011;18508;49.386;8.370;2022-10-03T02:12:33;11.35;;;4.53;;
31990;SDS011;18508;49.386;8.370;2022-10-03T02:15:07;8.45;;;4.25;;
31990;SDS011;18508;49.386;8.370;2022-10-03T02:17:48;10.18;;;4.93;;
31990;SDS011;18508;49.386;8.370;2022-10-03T02:20:26;8.90;;;4.68;;
31990;SDS011;18508;49.386;8.370;2022-10-03T02:23:01;9.93;;;5.10;;
31990;SDS011;18508;49.386;8.370;2022-10-03T02:25:49;9.65;;;5.15;;
31990;SDS011;18508;49.386;8.370;2022-10-03T02:28:37;14.65;;;7.03;;
31990;SDS011;18508;49.386;8.370;2022-10-03T02:31:37;10.50;;;5.80;;
31990;SDS011;18508;49.386;8.370;2022-10-03T02:40:56;11.70;;;5.55;;
31990;SDS011;18508;49.386;8.370;2022-10-03T02:44:14;10.15;;;5.50;;
31990;SDS011;18508;49.386;8.370;2022-10-03T02:50:03;12.65;;;7.03;;
31990;SDS011;18508;49.386;8.370;2022-10-03T02:57:00;16.38;;;6.88;;
31990;SDS011;18508;49.386;8.370;2022-10-03T03:00:05;12.75;;;6.70;;
31990;SDS011;18508;49.386;8.370;2022-10-03T03:09:19;12.43;;;6.20;;
31990;SDS011;18508;49.386;8.370;2022-10-03T03:19:44;13.65;;;5.50;;
31990;SDS011;18508;49.386;8.370;2022-10-03T03:22:31;11.02;;;5.45;;
31990;SDS011;18508;49.386;8.370;2022-10-03T03:25:17;9.77;;;5.20;;
31990;SDS011;18508;49.386;8.370;2022-10-03T03:28:08;12.00;;;6.07;;
31990;SDS011;18508;49.386;8.370;2022-10-03T03:30:55;13.45;;;6.50;;
31990;SDS011;18508;49.386;8.370;2022-10-03T03:33:40;10.30;;;5.32;;
31990;SDS011;18508;49.386;8.370;2022-10-03T03:36:21;14.23;;;6.32;;
31990;SDS011;18508;49.386;8.370;2022-10-03T03:39:04;10.30;;;6.07;;
31990;SDS011;18508;49.386;8.370;2022-10-03T03:47:41;12.30;;;6.20;;
31990;SDS011;18508;49.386;8.370;2022-10-03T03:50:30;12.73;;;6.63;;
31990;SDS011;18508;49.386;8.370;2022-10-03T03:53:16;13.18;;;6.72;;
31990;SDS011;18508;49.386;8.370;2022-10-03T03:58:59;13.15;;;7.10;;
31990;SDS011;18508;49.386;8.370;2022-10-03T04:01:44;13.82;;;6.45;;
31990;SDS011;18508;49.386;8.370;2022-10-03T04:07:31;11.40;;;5.97;;
31990;SDS011;18508;49.386;8.370;2022-10-03T04:13:13;10.73;;;5.70;;
31990;SDS011;18508;49.386;8.370;2022-10-03T04:19:31;15.18;;;6.38;;
31990;SDS011;18508;49.386;8.370;2022-10-03T04:22:24;12.27;;;5.40;;
31990;SDS011;18508;49.386;8.370;2022-10-03T04:25:18;12.32;;;6.32;;
31990;SDS011;18508;49.386;8.370;2022-10-03T04:31:09;10.95;;;6.03;;
31990;SDS011;18508;49.386;8.370;2022-10-03T04:33:55;12.13;;;6.20;;
31990;SDS011;18508;49.386;8.370;2022-10-03T04:39:40;11.23;;;6.25;;
31990;SDS011;18508;49.386;8.370;2022-10-03T04:42:17;13.07;;;6.40;;
31990;SDS011;18508;49.386;8.370;2022-10-03T04:45:04;12.35;;;6.95;;
31990;SDS011;18508;49.386;8.370;2022-10-03T04:47:55;12.35;;;6.28;;
31990;SDS011;18508;49.386;8.370;2022-10-03T04:50:38;12.13;;;6.30;;
31990;SDS011;18508;49.386;8.370;2022-10-03T04:53:21;11.85;;;5.90;;
31990;SDS011;18508;49.386;8.370;2022-10-03T04:56:12;11.23;;;5.60;;
31990;SDS011;18508;49.386;8.370;2022-10-03T04:58:54;13.50;;;6.85;;
31990;SDS011;18508;49.386;8.370;2022-10-03T05:01:32;11.93;;;6.18;;
31990;SDS011;18508;49.386;8.370;2022-10-03T05:04:16;12.77;;;6.20;;
31990;SDS011;18508;49.386;8.370;2022-10-03T05:07:10;13.68;;;6.20;;
31990;SDS011;18508;49.386;8.370;2022-10-03T05:10:01;9.23;;;5.60;;
31990;SDS011;18508;49.386;8.370;2022-10-03T05:12:58;14.07;;;6.22;;
31990;SDS011;18508;49.386;8.370;2022-10-03T05:15:54;16.40;;;6.32;;
31990;SDS011;18508;49.386;8.370;2022-10-03T05:18:38;17.05;;;6.63;;
31990;SDS011;18508;49.386;8.370;2022-10-03T05:21:30;22.75;;;7.57;;
31990;SDS011;18508;49.386;8.370;2022-10-03T05:24:12;20.55;;;8.63;;
31990;SDS011;18508;49.386;8.370;2022-10-03T05:26:51;21.27;;;9.93;;
31990;SDS011;18508;49.386;8.370;2022-10-03T05:29:37;20.02;;;10.00;;
31990;SDS011;18508;49.386;8.370;2022-10-03T05:32:16;17.50;;;9.55;;
31990;SDS011;18508;49.386;8.370;2022-10-03T05:35:03;17.27;;;8.50;;
31990;SDS011;18508;49.386;8.370;2022-10-03T05:37:50;16.70;;;8.60;;
31990;SDS011;18508;49.386;8.370;2022-10-03T05:40:49;15.80;;;8.20;;
31990;SDS011;18508;49.386;8.370;2022-10-03T05:43:35;15.50;;;8.15;;
31990;SDS011;18508;49.386;8.370;2022-10-03T05:46:20;21.35;;;10.73;;
31990;SDS011;18508;49.386;8.370;2022-10-03T05:49:07;19.38;;;9.25;;
31990;SDS011;18508;49.386;8.370;2022-10-03T05:52:17;19.98;;;9.88;;
31990;SDS011;18508;49.386;8.370;2022-10-03T06:08:00;21.13;;;9.25;;
31990;SDS011;18508;49.386;8.370;2022-10-03T06:11:01;16.20;;;7.75;;
31990;SDS011;18508;49.386;8.370;2022-10-03T06:13:55;15.27;;;7.32;;
31990;SDS011;18508;49.386;8.370;2022-10-03T06:16:46;17.52;;;7.82;;
31990;SDS011;18508;49.386;8.370;2022-10-03T06:19:26;17.35;;;7.68;;
31990;SDS011;18508;49.386;8.370;2022-10-03T06:25:17;15.35;;;8.15;;
31990;SDS011;18508;49.386;8.370;2022-10-03T06:34:25;17.65;;;8.50;;
31990;SDS011;18508;49.386;8.370;2022-10-03T06:37:18;16.88;;;8.02;;
31990;SDS011;18508;49.386;8.370;2022-10-03T06:43:49;21.02;;;9.25;;
31990;SDS011;18508;49.386;8.370;2022-10-03T06:46:39;21.77;;;9.63;;
31990;SDS011;18508;49.386;8.370;2022-10-03T06:52:43;60.83;;;11.80;;
31990;SDS011;18508;49.386;8.370;2022-10-03T06:55:47;33.35;;;11.38;;
31990;SDS011;18508;49.386;8.370;2022-10-03T06:58:38;36.72;;;12.10;;
31990;SDS011;18508;49.386;8.370;2022-10-03T07:04:29;50.75;;;13.98;;
31990;SDS011;18508;49.386;8.370;2022-10-03T07:07:38;29.17;;;12.35;;
31990;SDS011;18508;49.386;8.370;2022-10-03T07:10:45;44.97;;;14.20;;
31990;SDS011;18508;49.386;8.370;2022-10-03T07:13:38;28.52;;;11.68;;
31990;SDS011;18508;49.386;8.370;2022-10-03T07:16:48;30.42;;;13.93;;
31990;SDS011;18508;49.386;8.370;2022-10-03T07:29:06;32.05;;;15.93;;
31990;SDS011;18508;49.386;8.370;2022-10-03T07:32:04;32.80;;;14.85;;
31990;SDS011;18508;49.386;8.370;2022-10-03T07:35:23;27.23;;;14.18;;
31990;SDS011;18508;49.386;8.370;2022-10-03T07:41:44;29.90;;;14.10;;
31990;SDS011;18508;49.386;8.370;2022-10-03T07:50:54;25.90;;;12.30;;
31990;SDS011;18508;49.386;8.370;2022-10-03T07:53:37;23.80;;;12.75;;
31990;SDS011;18508;49.386;8.370;2022-10-03T07:56:36;22.60;;;11.10;;
31990;SDS011;18508;49.386;8.370;2022-10-03T07:59:41;22.05;;;10.77;;
31990;SDS011;18508;49.386;8.370;2022-10-03T08:02:31;21.92;;;12.05;;
31990;SDS011;18508;49.386;8.370;2022-10-03T08:05:17;20.27;;;10.60;;
31990;SDS011;18508;49.386;8.370;2022-10-03T08:08:00;25.77;;;11.50;;
31990;SDS011;18508;49.386;8.370;2022-10-03T08:10:55;19.70;;;11.05;;
31990;SDS011;18508;49.386;8.370;2022-10-03T08:13:46;23.02;;;12.57;;
31990;SDS011;18508;49.386;8.370;2022-10-03T08:16:34;18.45;;;10.10;;
31990;SDS011;18508;49.386;8.370;2022-10-03T08:19:43;17.35;;;8.98;;
31990;SDS011;18508;49.386;8.370;2022-10-03T08:22:36;19.85;;;10.20;;
31990;SDS011;18508;49.386;8.370;2022-10-03T08:25:22;20.20;;;10.02;;
31990;SDS011;18508;49.386;8.370;2022-10-03T08:28:07;21.00;;;10.13;;
31990;SDS011;18508;49.386;8.370;2022-10-03T08:30:58;19.67;;;9.05;;
31990;SDS011;18508;49.386;8.370;2022-10-03T08:33:53;19.95;;;9.77;;
31990;SDS011;18508;49.386;8.370;2022-10-03T08:36:42;18.33;;;9.60;;
31990;SDS011;18508;49.386;8.370;2022-10-03T08:39:44;18.38;;;9.32;;
31990;SDS011;18508;49.386;8.370;2022-10-03T08:42:27;19.05;;;8.80;;
31990;SDS011;18508;49.386;8.370;2022-10-03T09:00:19;14.05;;;8.63;;
31990;SDS011;18508;49.386;8.370;2022-10-03T09:06:17;15.50;;;8.80;;
31990;SDS011;18508;49.386;8.370;2022-10-03T09:09:33;13.52;;;8.20;;
31990;SDS011;18508;49.386;8.370;2022-10-03T09:12:41;15.15;;;8.50;;
31990;SDS011;18508;49.386;8.370;2022-10-03T09:15:43;13.07;;;7.70;;
31990;SDS011;18508;49.386;8.370;2022-10-03T09:18:38;14.60;;;7.93;;
31990;SDS011;18508;49.386;8.370;2022-10-03T09:21:23;12.02;;;6.55;;
31990;SDS011;18508;49.386;8.370;2022-10-03T09:24:38;15.80;;;7.78;;
31990;SDS011;18508;49.386;8.370;2022-10-03T09:27:39;11.73;;;6.57;;
31990;SDS011;18508;49.386;8.370;2022-10-03T09:30:23;12.25;;;7.55;;
31990;SDS011;18508;49.386;8.370;2022-10-03T09:33:18;16.95;;;8.07;;
31990;SDS011;18508;49.386;8.370;2022-10-03T09:39:20;13.35;;;6.70;;
31990;SDS011;18508;49.386;8.370;2022-10-03T09:48:36;11.60;;;6.82;;
31990;SDS011;18508;49.386;8.370;2022-10-03T09:51:36;11.48;;;6.35;;
31990;SDS011;18508;49.386;8.370;2022-10-03T10:00:53;8.07;;;4.53;;
31990;SDS011;18508;49.386;8.370;2022-10-03T10:07:24;11.27;;;4.68;;
31990;SDS011;18508;49.386;8.370;2022-10-03T10:10:39;8.95;;;4.93;;
31990;SDS011;18508;49.386;8.370;2022-10-03T10:13:35;9.70;;;4.50;;
31990;SDS011;18508;49.386;8.370;2022-10-03T10:16:49;8.27;;;4.45;;
31990;SDS011;18508;49.386;8.370;2022-10-03T10:19:46;8.50;;;4.75;;
31990;SDS011;18508;49.386;8.370;2022-10-03T10:29:12;13.48;;;7.40;;
31990;SDS011;18508;49.386;8.370;2022-10-03T10:32:21;12.55;;;6.57;;
31990;SDS011;18508;49.386;8.370;2022-10-03T10:35:41;11.77;;;6.40;;
31990;SDS011;18508;49.386;8.370;2022-10-03T10:54:20;11.10;;;5.93;;
31990;SDS011;18508;49.386;8.370;2022-10-03T10:57:20;10.98;;;5.95;;
31990;SDS011;18508;49.386;8.370;2022-10-03T11:00:04;10.20;;;5.97;;
31990;SDS011;18508;49.386;8.370;2022-10-03T11:06:14;9.10;;;5.65;;
31990;SDS011;18508;49.386;8.370;2022-10-03T11:25:11;14.88;;;7.82;;
31990;SDS011;18508;49.386;8.370;2022-10-03T11:28:10;9.90;;;7.38;;
31990;SDS011;18508;49.386;8.370;2022-10-03T11:37:29;12.20;;;8.73;;
31990;SDS011;18508;49.386;8.370;2022-10-03T11:40:20;10.55;;;7.63;;
31990;SDS011;18508;49.386;8.370;2022-10-03T11:43:17;13.52;;;8.05;;
31990;SDS011;18508;49.386;8.370;2022-10-03T11:46:06;11.50;;;7.38;;
31990;SDS011;18508;49.386;8.370;2022-10-03T11:48:50;10.95;;;7.47;;
31990;SDS011;18508;49.386;8.370;2022-10-03T11:51:27;10.18;;;7.18;;
31990;SDS011;18508;49.386;8.370;2022-10-03T11:54:08;8.60;;;6.43;;
31990;SDS011;18508;49.386;8.370;2022-10-03T11:56:58;8.90;;;6.13;;
31990;SDS011;18508;49.386;8.370;2022-10-03T11:59:42;8.82;;;5.57;;
31990;SDS011;18508;49.386;8.370;2022-10-03T12:02:34;10.20;;;6.30;;
31990;SDS011;18508;49.386;8.370;2022-10-03T12:05:17;8.30;;;5.65;;
31990;SDS011;18508;49.386;8.370;2022-10-03T12:07:57;9.20;;;6.25;;
31990;SDS011;18508;49.386;8.370;2022-10-03T12:11:02;9.30;;;5.60;;
31990;SDS011;18508;49.386;8.370;2022-10-03T12:13:37;10.07;;;4.30;;
31990;SDS011;18508;49.386;8.370;2022-10-03T12:16:14;8.10;;;4.70;;
31990;SDS011;18508;49.386;8.370;2022-10-03T12:18:56;6.53;;;3.83;;
31990;SDS011;18508;49.386;8.370;2022-10-03T12:21:34;7.40;;;3.50;;
31990;SDS011;18508;49.386;8.370;2022-10-03T12:24:23;6.68;;;3.67;;
31990;SDS011;18508;49.386;8.370;2022-10-03T12:26:58;5.47;;;3.67;;
31990;SDS011;18508;49.386;8.370;2022-10-03T12:29:35;8.32;;;3.42;;
31990;SDS011;18508;49.386;8.370;2022-10-03T12:32:14;7.32;;;3.28;;
31990;SDS011;18508;49.386;8.370;2022-10-03T12:34:55;4.00;;;2.42;;
31990;SDS011;18508;49.386;8.370;2022-10-03T12:37:37;6.13;;;2.80;;
31990;SDS011;18508;49.386;8.370;2022-10-03T12:40:17;5.47;;;2.08;;
31990;SDS011;18508;49.386;8.370;2022-10-03T12:42:58;4.03;;;2.28;;
31990;SDS011;18508;49.386;8.370;2022-10-03T12:45:38;5.10;;;2.00;;
31990;SDS011;18508;49.386;8.370;2022-10-03T12:48:20;6.22;;;2.40;;
31990;SDS011;18508;49.386;8.370;2022-10-03T12:51:01;6.38;;;2.42;;
31990;SDS011;18508;49.386;8.370;2022-10-03T12:53:43;4.15;;;2.05;;
31990;SDS011;18508;49.386;8.370;2022-10-03T12:56:27;5.43;;;2.25;;
31990;SDS011;18508;49.386;8.370;2022-10-03T12:59:11;3.17;;;2.08;;
31990;SDS011;18508;49.386;8.370;2022-10-03T13:01:50;3.20;;;2.20;;
31990;SDS011;18508;49.386;8.370;2022-10-03T13:09:46;3.70;;;1.90;;
31990;SDS011;18508;49.386;8.370;2022-10-03T13:12:32;3.65;;;1.90;;
31990;SDS011;18508;49.386;8.370;2022-10-03T13:21:03;5.07;;;2.30;;
31990;SDS011;18508;49.386;8.370;2022-10-03T13:23:57;3.70;;;2.22;;
31990;SDS011;18508;49.386;8.370;2022-10-03T13:26:36;3.88;;;2.13;;
31990;SDS011;18508;49.386;8.370;2022-10-03T13:32:17;4.45;;;2.00;;
31990;SDS011;18508;49.386;8.370;2022-10-03T13:35:01;4.07;;;1.80;;
31990;SDS011;18508;49.386;8.370;2022-10-03T13:38:10;4.95;;;2.42;;
31990;SDS011;18508;49.386;8.370;2022-10-03T13:40:50;6.07;;;1.98;;
31990;SDS011;18508;49.386;8.370;2022-10-03T13:43:25;4.18;;;1.70;;
31990;SDS011;18508;49.386;8.370;2022-10-03T13:46:04;4.70;;;2.00;;
31990;SDS011;18508;49.386;8.370;2022-10-03T13:48:38;6.07;;;3.90;;
31990;SDS011;18508;49.386;8.370;2022-10-03T13:51:11;3.97;;;2.13;;
31990;SDS011;18508;49.386;8.370;2022-10-03T13:53:52;3.85;;;2.05;;
31990;SDS011;18508;49.386;8.370;2022-10-03T13:59:22;3.08;;;1.70;;
31990;SDS011;18508;49.386;8.370;2022-10-03T14:02:09;6.85;;;2.80;;
31990;SDS011;18508;49.386;8.370;2022-10-03T14:04:57;8.00;;;2.10;;
31990;SDS011;18508;49.386;8.370;2022-10-03T14:07:41;3.83;;;2.30;;
31990;SDS011;18508;49.386;8.370;2022-10-03T14:10:20;3.35;;;1.92;;
31990;SDS011;18508;49.386;8.370;2022-10-03T14:13:05;4.45;;;2.50;;
31990;SDS011;18508;49.386;8.370;2022-10-03T14:15:47;3.55;;;1.65;;
31990;SDS011;18508;49.386;8.370;2022-10-03T14:18:22;3.15;;;1.65;;
31990;SDS011;18508;49.386;8.370;2022-10-03T14:24:16;4.05;;;2.35;;
31990;SDS011;18508;49.386;8.370;2022-10-03T14:26:55;4.15;;;2.10;;
31990;SDS011;18508;49.386;8.370;2022-10-03T14:29:31;3.63;;;2.08;;
31990;SDS011;18508;49.386;8.370;2022-10-03T14:32:06;4.03;;;1.90;;
31990;SDS011;18508;49.386;8.370;2022-10-03T14:35:04;5.57;;;2.40;;
31990;SDS011;18508;49.386;8.370;2022-10-03T14:37:41;5.10;;;2.45;;
31990;SDS011;18508;49.386;8.370;2022-10-03T14:40:18;6.60;;;2.55;;
31990;SDS011;18508;49.386;8.370;2022-10-03T14:42:58;6.28;;;4.05;;
31990;SDS011;18508;49.386;8.370;2022-10-03T14:45:40;6.90;;;2.60;;
31990;SDS011;18508;49.386;8.370;2022-10-03T14:48:12;8.95;;;3.08;;
31990;SDS011;18508;49.386;8.370;2022-10-03T14:53:15;7.63;;;2.90;;
31990;SDS011;18508;49.386;8.370;2022-10-03T14:55:51;8.45;;;3.35;;
31990;SDS011;18508;49.386;8.370;2022-10-03T14:58:28;5.88;;;2.67;;
31990;SDS011;18508;49.386;8.370;2022-10-03T15:01:02;4.22;;;2.10;;
31990;SDS011;18508;49.386;8.370;2022-10-03T15:03:38;3.35;;;1.75;;
31990;SDS011;18508;49.386;8.370;2022-10-03T15:06:29;7.30;;;2.65;;
31990;SDS011;18508;49.386;8.370;2022-10-03T15:09:03;3.78;;;1.92;;
31990;SDS011;18508;49.386;8.370;2022-10-03T15:11:36;4.32;;;1.90;;
31990;SDS011;18508;49.386;8.370;2022-10-03T15:14:13;4.82;;;2.40;;
31990;SDS011;18508;49.386;8.370;2022-10-03T15:16:45;4.32;;;1.80;;
31990;SDS011;18508;49.386;8.370;2022-10-03T15:19:19;2.75;;;1.40;;
31990;SDS011;18508;49.386;8.370;2022-10-03T15:21:54;4.20;;;1.67;;
31990;SDS011;18508;49.386;8.370;2022-10-03T15:24:30;4.68;;;1.85;;
31990;SDS011;18508;49.386;8.370;2022-10-03T15:27:02;2.95;;;1.35;;
31990;SDS011;18508;49.386;8.370;2022-10-03T15:29:34;5.93;;;2.75;;
31990;SDS011;18508;49.386;8.370;2022-10-03T15:32:15;3.13;;;1.45;;
31990;SDS011;18508;49.386;8.370;2022-10-03T15:34:47;3.67;;;2.17;;
31990;SDS011;18508;49.386;8.370;2022-10-03T15:37:19;3.70;;;1.40;;
31990;SDS011;18508;49.386;8.370;2022-10-03T15:39:50;5.78;;;1.70;;
31990;SDS011;18508;49.386;8.370;2022-10-03T15:42:20;2.30;;;1.50;;
31990;SDS011;18508;49.386;8.370;2022-10-03T15:44:51;3.20;;;1.40;;
31990;SDS011;18508;49.386;8.370;2022-10-03T15:47:24;3.13;;;1.60;;
31990;SDS011;18508;49.386;8.370;2022-10-03T15:49:56;2.13;;;1.30;;
31990;SDS011;18508;49.386;8.370;2022-10-03T15:55:02;4.43;;;1.40;;
31990;SDS011;18508;49.386;8.370;2022-10-03T15:57:38;4.40;;;1.50;;
31990;SDS011;18508;49.386;8.370;2022-10-03T16:00:18;2.90;;;1.60;;
31990;SDS011;18508;49.386;8.370;2022-10-03T16:02:53;3.58;;;1.65;;
31990;SDS011;18508;49.386;8.370;2022-10-03T16:05:26;6.03;;;3.22;;
31990;SDS011;18508;49.386;8.370;2022-10-03T16:07:58;7.90;;;4.03;;
31990;SDS011;18508;49.386;8.370;2022-10-03T16:10:33;8.98;;;5.05;;
31990;SDS011;18508;49.386;8.370;2022-10-03T16:13:05;7.43;;;4.32;;
31990;SDS011;18508;49.386;8.370;2022-10-03T16:15:52;7.18;;;3.60;;
31990;SDS011;18508;49.386;8.370;2022-10-03T16:18:45;7.57;;;3.90;;
31990;SDS011;18508;49.386;8.370;2022-10-03T16:21:20;6.53;;;2.95;;
31990;SDS011;18508;49.386;8.370;2022-10-03T16:24:15;5.25;;;3.15;;
31990;SDS011;18508;49.386;8.370;2022-10-03T16:26:50;6.68;;;3.40;;
31990;SDS011;18508;49.386;8.370;2022-10-03T16:29:21;7.10;;;2.63;;
31990;SDS011;18508;49.386;8.370;2022-10-03T16:31:56;4.63;;;2.63;;
31990;SDS011;18508;49.386;8.370;2022-10-03T16:34:31;6.00;;;2.72;;
31990;SDS011;18508;49.386;8.370;2022-10-03T16:37:01;5.95;;;2.90;;
31990;SDS011;18508;49.386;8.370;2022-10-03T16:39:41;5.05;;;2.80;;
31990;SDS011;18508;49.386;8.370;2022-10-03T16:42:17;6.72;;;3.20;;
31990;SDS011;18508;49.386;8.370;2022-10-03T16:44:50;7.65;;;4.00;;
31990;SDS011;18508;49.386;8.370;2022-10-03T16:47:27;6.82;;;3.63;;
31990;SDS011;18508;49.386;8.370;2022-10-03T16:49:59;9.02;;;4.60;;
31990;SDS011;18508;49.386;8.370;2022-10-03T16:52:46;11.02;;;6.38;;
31990;SDS011;18508;49.386;8.370;2022-10-03T16:55:21;12.70;;;7.90;;
31990;SDS011;18508;49.386;8.370;2022-10-03T16:57:54;12.38;;;7.28;;
31990;SDS011;18508;49.386;8.370;2022-10-03T17:00:25;13.40;;;8.07;;
31990;SDS011;18508;49.386;8.370;2022-10-03T17:03:00;10.15;;;6.15;;
31990;SDS011;18508;49.386;8.370;2022-10-03T17:05:42;13.10;;;6.45;;
31990;SDS011;18508;49.386;8.370;2022-10-03T17:08:13;7.28;;;5.07;;
31990;SDS011;18508;49.386;8.370;2022-10-03T17:11:05;7.47;;;4.57;;
31990;SDS011;18508;49.386;8.370;2022-10-03T17:13:38;7.75;;;4.38;;
31990;SDS011;18508;49.386;8.370;2022-10-03T17:16:12;10.88;;;5.07;;
31990;SDS011;18508;49.386;8.370;2022-10-03T17:19:00;7.30;;;4.32;;
31990;SDS011;18508;49.386;8.370;2022-10-03T17:21:36;9.48;;;5.18;;
31990;SDS011;18508;49.386;8.370;2022-10-03T17:24:09;9.50;;;5.15;;
31990;SDS011;18508;49.386;8.370;2022-10-03T17:26:39;11.90;;;6.55;;
31990;SDS011;18508;49.386;8.370;2022-10-03T17:29:12;24.30;;;14.38;;
31990;SDS011;18508;49.386;8.370;2022-10-03T17:31:47;27.15;;;14.25;;
31990;SDS011;18508;49.386;8.370;2022-10-03T17:34:21;19.20;;;10.23;;
31990;SDS011;18508;49.386;8.370;2022-10-03T17:37:11;21.77;;;11.18;;
31990;SDS011;18508;49.386;8.370;2022-10-03T17:39:49;17.48;;;9.35;;
31990;SDS011;18508;49.386;8.370;2022-10-03T17:42:28;19.85;;;9.75;;
31990;SDS011;18508;49.386;8.370;2022-10-03T17:45:18;19.88;;;10.35;;
31990;SDS011;18508;49.386;8.370;2022-10-03T17:47:59;14.07;;;8.13;;
31990;SDS011;18508;49.386;8.370;2022-10-03T17:50:36;15.45;;;8.25;;
31990;SDS011;18508;49.386;8.370;2022-10-03T17:53:17;13.32;;;7.60;;
31990;SDS011;18508;49.386;8.370;2022-10-03T17:55:50;12.95;;;7.45;;
31990;SDS011;18508;49.386;8.370;2022-10-03T17:58:22;16.85;;;8.68;;
31990;SDS011;18508;49.386;8.370;2022-10-03T18:00:54;13.43;;;7.97;;
31990;SDS011;18508;49.386;8.370;2022-10-03T18:03:33;16.85;;;10.60;;
31990;SDS011;18508;49.386;8.370;2022-10-03T18:09:19;15.88;;;7.82;;
31990;SDS011;18508;49.386;8.370;2022-10-03T18:12:01;13.15;;;7.75;;
31990;SDS011;18508;49.386;8.370;2022-10-03T18:17:56;14.50;;;7.95;;
31990;SDS011;18508;49.386;8.370;2022-10-03T18:23:17;14.32;;;8.88;;
31990;SDS011;18508;49.386;8.370;2022-10-03T18:26:16;15.38;;;7.85;;
31990;SDS011;18508;49.386;8.370;2022-10-03T18:28:54;17.48;;;8.00;;
31990;SDS011;18508;49.386;8.370;2022-10-03T18:31:36;12.90;;;7.78;;
31990;SDS011;18508;49.386;8.370;2022-10-03T18:34:13;11.88;;;7.53;;
31990;SDS011;18508;49.386;8.370;2022-10-03T18:36:47;16.60;;;8.60;;
31990;SDS011;18508;49.386;8.370;2022-10-03T18:39:20;17.83;;;9.63;;
31990;SDS011;18508;49.386;8.370;2022-10-03T18:41:55;20.52;;;9.05;;
31990;SDS011;18508;49.386;8.370;2022-10-03T18:44:25;18.35;;;10.38;;
31990;SDS011;18508;49.386;8.370;2022-10-03T18:46:57;21.67;;;11.75;;
31990;SDS011;18508;49.386;8.370;2022-10-03T18:49:38;21.85;;;11.40;;
31990;SDS011;18508;49.386;8.370;2022-10-03T18:52:10;19.40;;;10.15;;
31990;SDS011;18508;49.386;8.370;2022-10-03T18:54:45;17.90;;;9.65;;
31990;SDS011;18508;49.386;8.370;2022-10-03T18:57:25;12.05;;;8.52;;
31990;SDS011;18508;49.386;8.370;2022-10-03T19:00:03;16.70;;;6.82;;
31990;SDS011;18508;49.386;8.370;2022-10-03T19:02:34;14.38;;;7.78;;
31990;SDS011;18508;49.386;8.370;2022-10-03T19:05:10;13.20;;;8.65;;
31990;SDS011;18508;49.386;8.370;2022-10-03T19:07:47;13.48;;;9.10;;
31990;SDS011;18508;49.386;8.370;2022-10-03T19:10:36;15.38;;;10.15;;
31990;SDS011;18508;49.386;8.370;2022-10-03T19:13:14;24.15;;;14.32;;
31990;SDS011;18508;49.386;8.370;2022-10-03T19:15:56;19.73;;;12.25;;
31990;SDS011;18508;49.386;8.370;2022-10-03T19:18:41;22.25;;;11.75;;
31990;SDS011;18508;49.386;8.370;2022-10-03T19:21:11;16.17;;;9.27;;
31990;SDS011;18508;49.386;8.370;2022-10-03T19:23:45;14.88;;;9.43;;
31990;SDS011;18508;49.386;8.370;2022-10-03T19:26:19;15.98;;;8.52;;
31990;SDS011;18508;49.386;8.370;2022-10-03T19:28:56;16.63;;;8.43;;
31990;SDS011;18508;49.386;8.370;2022-10-03T19:31:30;18.75;;;9.35;;
31990;SDS011;18508;49.386;8.370;2022-10-03T19:34:02;17.40;;;8.83;;
31990;SDS011;18508;49.386;8.370;2022-10-03T19:36:38;16.73;;;9.02;;
31990;SDS011;18508;49.386;8.370;2022-10-03T19:39:10;17.58;;;7.72;;
31990;SDS011;18508;49.386;8.370;2022-10-03T19:41:43;15.00;;;8.23;;
31990;SDS011;18508;49.386;8.370;2022-10-03T19:44:20;13.40;;;7.32;;
31990;SDS011;18508;49.386;8.370;2022-10-03T19:46:54;15.73;;;8.50;;
31990;SDS011;18508;49.386;8.370;2022-10-03T19:49:41;47.92;;;22.42;;
31990;SDS011;18508;49.386;8.370;2022-10-03T19:52:18;27.10;;;12.73;;
31990;SDS011;18508;49.386;8.370;2022-10-03T19:54:52;24.88;;;10.85;;
31990;SDS011;18508;49.386;8.370;2022-10-03T19:57:29;16.95;;;9.27;;
31990;SDS011;18508;49.386;8.370;2022-10-03T20:00:18;20.63;;;10.57;;
31990;SDS011;18508;49.386;8.370;2022-10-03T20:02:52;15.98;;;9.70;;
31990;SDS011;18508;49.386;8.370;2022-10-03T20:05:23;18.52;;;10.20;;
31990;SDS011;18508;49.386;8.370;2022-10-03T20:07:58;21.00;;;9.98;;
31990;SDS011;18508;49.386;8.370;2022-10-03T20:10:32;18.05;;;10.00;;
31990;SDS011;18508;49.386;8.370;2022-10-03T20:13:08;17.08;;;9.65;;
31990;SDS011;18508;49.386;8.370;2022-10-03T20:15:41;13.43;;;9.05;;
31990;SDS011;18508;49.386;8.370;2022-10-03T20:18:17;15.82;;;9.15;;
31990;SDS011;18508;49.386;8.370;2022-10-03T20:20:52;18.20;;;9.85;;